createdAt,value
2022-08-28T00:00:00.297Z,82
2022-08-28T00:10:00.505Z,82
2022-08-28T00:20:00.369Z,82
2022-08-28T00:30:00.372Z,82
2022-08-28T00:40:02.169Z,82
2022-08-28T00:50:00.295Z,82
2022-08-28T01:00:00.308Z,82
2022-08-28T01:10:00.303Z,82
2022-08-28T01:20:00.322Z,82
2022-08-28T01:30:00.331Z,82
2022-08-28T01:40:00.537Z,82
2022-08-28T01:50:00.271Z,82
2022-08-28T02:00:00.322Z,82
2022-08-28T02:10:00.302Z,83
2022-08-28T02:20:00.338Z,83
2022-08-28T02:30:00.277Z,83
2022-08-28T02:40:00.469Z,83
2022-08-28T02:50:00.347Z,83
2022-08-28T03:00:00.282Z,83
2022-08-28T03:10:00.267Z,83
2022-08-28T03:20:00.297Z,83
2022-08-28T03:30:00.320Z,83
2022-08-28T03:40:00.552Z,82
2022-08-28T03:50:00.497Z,82
2022-08-28T04:00:00.349Z,82
2022-08-28T04:10:00.290Z,83
2022-08-28T04:20:00.294Z,83
2022-08-28T04:30:00.306Z,83
2022-08-28T04:40:00.648Z,83
2022-08-28T04:50:00.282Z,83
2022-08-28T05:00:00.288Z,83
2022-08-28T05:10:00.339Z,83
2022-08-28T05:20:00.325Z,83
2022-08-28T05:30:02.402Z,83
2022-08-28T05:40:00.446Z,83
2022-08-28T05:50:00.289Z,83
2022-08-28T06:00:00.299Z,83
2022-08-28T06:10:00.285Z,84
2022-08-28T06:20:00.346Z,84
2022-08-28T06:30:00.286Z,84
2022-08-28T06:40:00.488Z,84
2022-08-28T06:50:00.289Z,84
2022-08-28T07:00:01.161Z,84
2022-08-28T07:10:00.290Z,84
2022-08-28T07:20:00.322Z,84
2022-08-28T07:30:00.375Z,83
2022-08-28T07:40:00.509Z,83
2022-08-28T07:50:00.295Z,83
2022-08-28T08:00:00.330Z,83
2022-08-28T08:10:00.315Z,83
2022-08-28T08:20:00.299Z,82
2022-08-28T08:30:00.320Z,81
2022-08-28T08:40:00.603Z,81
2022-08-28T08:50:00.300Z,79
2022-08-28T09:00:00.340Z,79
2022-08-28T09:10:00.304Z,77
2022-08-28T09:20:00.290Z,77
2022-08-28T09:30:08.479Z,76
2022-08-28T09:40:00.433Z,75
2022-08-28T09:50:00.339Z,74
2022-08-28T10:00:00.288Z,73
2022-08-28T10:10:00.308Z,72
2022-08-28T10:20:00.293Z,71
2022-08-28T10:30:08.974Z,70
2022-08-28T10:40:00.524Z,70
2022-08-28T10:50:00.330Z,67
2022-08-28T11:00:00.337Z,68
2022-08-28T11:10:00.655Z,67
2022-08-28T11:20:00.301Z,65
2022-08-28T11:30:00.477Z,65
2022-08-28T11:40:00.489Z,65
2022-08-28T11:50:00.292Z,65
2022-08-28T12:00:00.314Z,64
2022-08-28T12:10:05.319Z,64
2022-08-28T12:20:00.296Z,65
2022-08-28T12:30:00.477Z,63
2022-08-28T12:40:00.459Z,61
2022-08-28T12:50:00.293Z,62
2022-08-28T13:00:00.316Z,61
2022-08-28T13:10:01.085Z,62
2022-08-28T13:20:00.350Z,60
2022-08-28T13:30:01.453Z,60
2022-08-28T13:40:04.385Z,60
2022-08-28T13:50:00.306Z,59
2022-08-28T14:00:00.366Z,60
2022-08-28T14:10:00.660Z,60
2022-08-28T14:20:00.315Z,60
2022-08-28T14:30:00.378Z,60
2022-08-28T14:40:00.542Z,60
2022-08-28T14:50:00.545Z,60
2022-08-28T15:00:00.314Z,61
2022-08-28T15:10:00.339Z,61
2022-08-28T15:20:00.304Z,62
2022-08-28T15:30:00.329Z,63
2022-08-28T15:40:00.604Z,64
2022-08-28T15:50:04.742Z,66
2022-08-28T16:00:00.366Z,68
2022-08-28T16:10:00.331Z,70
2022-08-28T16:20:00.372Z,72
2022-08-28T16:30:01.005Z,73
2022-08-28T16:40:00.706Z,75
2022-08-28T16:50:00.309Z,75
2022-08-28T17:00:00.286Z,76
2022-08-28T17:10:00.331Z,76
2022-08-28T17:20:02.551Z,76
2022-08-28T17:30:00.400Z,76
2022-08-28T17:40:00.580Z,76
2022-08-28T17:50:00.340Z,76
2022-08-28T18:00:00.320Z,77
2022-08-28T18:10:00.346Z,77
2022-08-28T18:20:00.465Z,78
2022-08-28T18:30:00.332Z,78
2022-08-28T18:40:01.809Z,78
2022-08-28T18:50:05.295Z,78
2022-08-28T19:00:00.295Z,78
2022-08-28T19:10:00.301Z,78
2022-08-28T19:20:00.318Z,78
2022-08-28T19:30:00.305Z,79
2022-08-28T19:40:00.494Z,80
2022-08-28T19:50:00.305Z,80
2022-08-28T20:00:01.085Z,79
2022-08-28T20:10:00.317Z,79
2022-08-28T20:20:03.492Z,80
2022-08-28T20:30:10.606Z,80
2022-08-28T20:40:00.589Z,80
2022-08-28T20:50:00.290Z,80
2022-08-28T21:00:05.712Z,80
2022-08-28T21:10:07.669Z,80
2022-08-28T21:20:00.599Z,80
2022-08-28T21:30:00.322Z,81
2022-08-28T21:40:00.523Z,80
2022-08-28T21:50:00.286Z,80
2022-08-28T22:00:00.299Z,80
2022-08-28T22:10:00.279Z,81
2022-08-28T22:20:00.298Z,81
2022-08-28T22:30:00.351Z,81
2022-08-28T22:40:00.560Z,81
2022-08-28T22:50:00.315Z,81
2022-08-28T23:00:00.279Z,81
2022-08-28T23:10:00.294Z,81
2022-08-28T23:20:00.299Z,81
2022-08-28T23:30:00.287Z,81
2022-08-28T23:40:00.956Z,82
2022-08-28T23:50:00.291Z,82
